Time;durP1;ratioP1;P1;durP2;ratioP2;P2;SDS_P1;SDS_P2;PMS_P1;PMS_P2;Temp;Humidity;BMP_temperature;BMP_pressure;BME280_temperature;BME280_humidity;BME280_pressure;Samples;Min_cycle;Max_cycle;Signal;HPM_P1;HPM_P2
2022/11/08 00:02:38;;;;;;;22.37;11.35;;;;;;;6.06;97.58;100484.03;4440337;32;33776;-77
2022/11/08 00:16:16;;;;;;;23.08;10.82;;;;;;;6.15;95.43;100482.94;4436095;32;34593;-76
2022/11/08 00:18:46;;;;;;;18.15;9.85;;;;;;;6.00;96.53;100481.03;4442923;32;34113;-76
2022/11/08 00:21:14;;;;;;;24.05;10.45;;;;;;;6.02;96.24;100482.03;4437077;32;32473;-76
2022/11/08 00:23:43;;;;;;;21.42;9.80;;;;;;;6.09;96.02;100476.56;4440352;32;34116;-76
2022/11/08 00:26:12;;;;;;;19.58;10.07;;;;;;;6.18;95.66;100473.78;4439750;32;33377;-76
2022/11/08 00:28:40;;;;;;;24.75;10.70;;;;;;;6.04;95.86;100483.03;4436589;32;34596;-76
2022/11/08 00:31:07;;;;;;;20.75;10.68;;;;;;;5.99;96.33;100481.81;4444207;32;33803;-76
2022/11/08 00:33:36;;;;;;;21.25;11.38;;;;;;;6.03;96.28;100482.94;4442113;32;34472;-76
2022/11/08 00:36:04;;;;;;;25.33;11.90;;;;;;;5.96;96.41;100489.28;4434370;32;33285;-76
2022/11/08 00:38:31;;;;;;;26.58;12.52;;;;;;;5.85;96.93;100487.56;4440447;32;33965;-76
2022/11/08 00:40:59;;;;;;;25.12;11.60;;;;;;;5.91;96.66;100493.19;4441582;32;32831;-77
2022/11/08 00:43:27;;;;;;;27.35;12.20;;;;;;;5.92;97.05;100489.81;4441333;32;33003;-76
2022/11/08 00:45:54;;;;;;;30.15;13.23;;;;;;;5.81;97.77;100485.56;4434344;32;34723;-76
2022/11/08 00:48:22;;;;;;;26.23;12.32;;;;;;;5.92;97.32;100487.25;4425007;32;34138;-76
2022/11/08 00:50:50;;;;;;;23.02;11.52;;;;;;;6.00;96.93;100483.59;4436917;32;34292;-77
2022/11/08 00:53:17;;;;;;;28.65;12.52;;;;;;;6.04;97.29;100480.47;4432238;32;33603;-76
2022/11/08 00:55:45;;;;;;;23.00;11.52;;;;;;;6.09;96.17;100483.41;4454499;32;33773;-76
2022/11/08 00:58:13;;;;;;;26.40;11.60;;;;;;;6.20;95.44;100476.44;4436878;32;34066;-76
2022/11/08 01:00:40;;;;;;;22.10;11.32;;;;;;;6.12;96.47;100477.56;4429573;32;33384;-77
2022/11/08 01:03:20;;;;;;;24.37;10.48;;;;;;;6.15;96.40;100472.66;4429711;32;33814;-76
2022/11/08 01:05:48;;;;;;;28.83;12.25;;;;;;;5.86;97.57;100479.09;4432077;32;34507;-76
2022/11/08 01:08:17;;;;;;;23.20;11.32;;;;;;;6.17;96.53;100471.09;4433906;32;34157;-76
2022/11/08 01:10:47;;;;;;;26.42;11.38;;;;;;;6.14;96.14;100476.00;4437066;32;33675;-76
2022/11/08 01:13:15;;;;;;;23.02;9.75;;;;;;;5.90;97.27;100478.53;4430668;32;33477;-76
2022/11/08 01:15:44;;;;;;;23.65;10.55;;;;;;;5.98;96.77;100480.00;4434072;32;33710;-76
2022/11/08 01:18:13;;;;;;;25.92;10.63;;;;;;;6.10;95.44;100486.09;4423852;32;32420;-76
2022/11/08 01:20:42;;;;;;;26.65;11.52;;;;;;;6.24;94.53;100473.34;4433852;32;32293;-76
2022/11/08 01:23:11;;;;;;;25.85;10.40;;;;;;;6.53;92.59;100472.84;4433957;32;34756;-76
2022/11/08 01:25:41;;;;;;;22.83;10.05;;;;;;;6.40;92.56;100475.34;4434839;32;33955;-76
2022/11/08 01:28:09;;;;;;;20.67;9.77;;;;;;;6.28;91.64;100467.63;4449754;32;34106;-77
2022/11/08 01:30:38;;;;;;;20.35;9.88;;;;;;;6.30;92.33;100473.78;4445903;32;32160;-76
2022/11/08 01:33:06;;;;;;;26.67;10.27;;;;;;;6.51;90.57;100469.28;4434397;32;33503;-76
2022/11/08 01:35:35;;;;;;;25.95;10.15;;;;;;;6.24;91.59;100466.50;4439321;32;33722;-76
2022/11/08 01:38:03;;;;;;;20.33;9.60;;;;;;;6.09;92.86;100463.69;4440064;32;33988;-76
2022/11/08 01:40:31;;;;;;;20.10;9.02;;;;;;;5.99;94.06;100474.09;4437312;32;34344;-76
2022/11/08 01:42:59;;;;;;;19.75;9.43;;;;;;;6.12;93.28;100473.31;4442075;32;34679;-77
2022/11/08 01:46:04;;;;;;;20.65;9.38;;;;;;;6.56;90.59;100469.59;4429280;32;34853;-77
2022/11/08 01:48:32;;;;;;;22.33;10.75;;;;;;;6.43;90.70;100471.31;4444899;32;34953;-77
2022/11/08 01:50:59;;;;;;;22.00;10.25;;;;;;;6.30;91.23;100468.63;4448119;32;33707;-76
2022/11/08 01:53:27;;;;;;;23.00;11.20;;;;;;;6.15;92.10;100463.25;4442002;32;34628;-76
2022/11/08 01:55:55;;;;;;;27.87;13.13;;;;;;;6.29;90.86;100461.69;4446180;32;33237;-76
2022/11/08 01:58:27;;;;;;;22.02;10.48;;;;;;;6.60;89.17;100458.72;4434161;32;32595;-76
2022/11/08 02:00:55;;;;;;;18.87;9.73;;;;;;;6.70;88.66;100463.72;4446397;32;33595;-76
2022/11/08 02:03:23;;;;;;;20.67;10.02;;;;;;;7.35;85.03;100455.34;4423337;32;33447;-76
2022/11/08 02:05:51;;;;;;;15.95;8.60;;;;;;;7.50;83.69;100461.53;4446238;32;33555;-77
2022/11/08 02:08:20;;;;;;;18.25;8.88;;;;;;;7.74;82.51;100451.06;4445112;32;33955;-76
2022/11/08 02:10:50;;;;;;;18.58;8.73;;;;;;;7.74;81.63;100454.53;4449995;32;33525;-76
2022/11/08 02:13:22;;;;;;;15.38;7.85;;;;;;;7.50;82.10;100451.22;4437698;32;33745;-76
2022/11/08 02:15:50;;;;;;;15.60;8.13;;;;;;;7.79;80.85;100449.69;4435474;32;33750;-77
2022/11/08 02:18:19;;;;;;;15.15;7.32;;;;;;;7.76;80.75;100452.06;4433486;32;33946;-76
2022/11/08 02:20:59;;;;;;;16.87;8.00;;;;;;;7.67;80.71;100455.81;4446334;32;34172;-76
2022/11/08 02:23:51;;;;;;;17.33;8.30;;;;;;;7.63;80.39;100453.84;4443498;32;34503;-76
2022/11/08 02:26:22;;;;;;;17.15;8.93;;;;;;;7.81;79.55;100455.84;4440155;32;33233;-77
2022/11/08 02:28:50;;;;;;;14.55;7.65;;;;;;;7.89;79.20;100446.91;4450600;32;33912;-76
2022/11/08 02:31:19;;;;;;;14.38;7.57;;;;;;;7.70;79.34;100459.38;4450804;32;33788;-76
2022/11/08 02:33:47;;;;;;;14.75;7.97;;;;;;;7.22;79.47;100454.50;4430820;32;33291;-76
2022/11/08 02:36:19;;;;;;;16.87;7.93;;;;;;;7.26;78.74;100453.94;4439599;32;34763;-76
2022/11/08 02:38:52;;;;;;;16.73;8.27;;;;;;;7.04;79.79;100459.28;4426208;32;33738;-76
2022/11/08 02:41:20;;;;;;;16.35;8.32;;;;;;;7.02;79.77;100454.81;4431160;32;34405;-76
2022/11/08 02:43:47;;;;;;;17.23;7.25;;;;;;;7.25;79.16;100454.69;4447662;32;33666;-76
2022/11/08 02:46:15;;;;;;;15.32;7.93;;;;;;;7.47;78.09;100456.16;4439963;32;33689;-76
2022/11/08 02:48:42;;;;;;;16.58;7.35;;;;;;;7.67;77.39;100460.97;4437903;32;32658;-76
2022/11/08 02:51:10;;;;;;;15.85;9.00;;;;;;;7.76;76.81;100458.09;4450517;32;33346;-76
2022/11/08 02:53:37;;;;;;;16.27;8.10;;;;;;;7.66;77.13;100459.16;4442918;32;33749;-77
2022/11/08 02:56:05;;;;;;;18.05;8.82;;;;;;;7.59;77.56;100458.66;4437669;32;34603;-76
2022/11/08 02:58:33;;;;;;;16.48;8.00;;;;;;;7.72;76.94;100462.97;4442605;32;34679;-76
2022/11/08 03:01:00;;;;;;;16.37;8.35;;;;;;;7.55;77.67;100465.31;4446374;32;34344;-76
2022/11/08 03:03:28;;;;;;;17.62;8.90;;;;;;;7.31;77.99;100461.06;4448907;32;33641;-76
2022/11/08 03:05:56;;;;;;;16.15;8.75;;;;;;;7.15;78.75;100460.03;4440340;32;33859;-76
2022/11/08 03:08:24;;;;;;;15.02;8.20;;;;;;;7.19;78.57;100464.59;4445591;32;33813;-76
2022/11/08 03:28:08;;;;;;;20.48;10.40;;;;;;;5.54;84.90;100471.53;4432821;32;34614;-76
2022/11/08 03:30:35;;;;;;;22.17;10.43;;;;;;;5.75;84.86;100479.97;4426202;32;34017;-76
2022/11/08 03:33:03;;;;;;;19.83;9.13;;;;;;;6.58;81.72;100470.59;4432208;32;33885;-76
2022/11/08 03:35:31;;;;;;;18.33;9.82;;;;;;;6.92;79.30;100467.84;4428332;32;33621;-76
2022/11/08 03:37:58;;;;;;;16.45;8.90;;;;;;;6.63;80.24;100474.41;4428594;32;33961;-76
2022/11/08 03:40:26;;;;;;;18.67;8.55;;;;;;;6.79;79.65;100471.22;4437856;32;34523;-76
2022/11/08 03:42:56;;;;;;;18.02;8.30;;;;;;;6.81;79.12;100469.66;4441343;32;33707;-76
2022/11/08 03:45:23;;;;;;;15.88;8.63;;;;;;;6.58;79.68;100470.59;4442089;32;33913;-76
2022/11/08 03:47:51;;;;;;;19.23;8.80;;;;;;;6.30;80.30;100478.91;4434750;32;34398;-76
2022/11/08 03:50:18;;;;;;;17.40;8.93;;;;;;;6.01;80.82;100479.38;4431280;32;34089;-76
2022/11/08 03:52:48;;;;;;;19.50;9.35;;;;;;;5.57;83.50;100477.81;4431584;32;33513;-76
2022/11/08 03:55:17;;;;;;;17.95;9.23;;;;;;;5.41;84.36;100479.97;4429130;32;34536;-76
2022/11/08 03:57:46;;;;;;;20.50;9.50;;;;;;;5.32;84.69;100483.63;4440359;32;33890;-76
2022/11/08 04:00:17;;;;;;;21.80;9.55;;;;;;;6.44;79.37;100478.22;4441416;32;33877;-76
2022/11/08 04:02:45;;;;;;;18.15;9.88;;;;;;;6.15;80.58;100480.38;4431671;32;32942;-76
2022/11/08 04:05:13;;;;;;;23.35;11.02;;;;;;;5.70;83.21;100477.94;4432808;32;33493;-76
2022/11/08 04:07:41;;;;;;;19.70;10.10;;;;;;;5.74;84.51;100475.59;4438651;32;33698;-76
2022/11/08 04:10:10;;;;;;;16.37;8.82;;;;;;;6.71;80.26;100475.84;4434038;32;33876;-76
2022/11/08 04:15:46;;;;;;;16.20;9.27;;;;;;;7.13;77.19;100477.06;4399936;26;34504;-76
2022/11/08 04:21:18;;;;;;;17.27;8.82;;;;;;;7.50;74.79;100474.41;4415856;32;34236;-77
2022/11/08 04:23:47;;;;;;;17.20;8.88;;;;;;;7.77;72.16;100466.75;4413375;32;33621;-76
2022/11/08 04:26:15;;;;;;;22.05;9.77;;;;;;;7.71;71.26;100466.31;4416209;32;33911;-76
2022/11/08 04:28:43;;;;;;;17.27;8.52;;;;;;;6.76;75.10;100466.78;4419665;32;33670;-76
2022/11/08 04:31:13;;;;;;;18.08;8.88;;;;;;;7.08;73.86;100469.00;4419477;32;35459;-76
2022/11/08 04:33:41;;;;;;;20.77;9.48;;;;;;;7.32;73.00;100465.41;4415808;32;32855;-76
2022/11/08 04:36:14;;;;;;;28.75;10.27;;;;;;;7.21;73.16;100459.56;4412462;32;33695;-76
2022/11/08 04:38:42;;;;;;;20.85;9.00;;;;;;;7.31;73.25;100458.50;4420242;32;34598;-76
2022/11/08 04:41:11;;;;;;;23.52;10.35;;;;;;;6.58;76.14;100462.88;4416907;32;34600;-76
2022/11/08 04:43:39;;;;;;;24.08;10.63;;;;;;;6.19;78.27;100464.37;4417298;32;33527;-76
2022/11/08 04:46:09;;;;;;;26.62;11.48;;;;;;;5.89;80.37;100461.28;4421108;32;34016;-76
2022/11/08 04:48:37;;;;;;;27.83;12.10;;;;;;;5.78;80.89;100460.53;4420183;32;33389;-76
2022/11/08 04:51:06;;;;;;;34.58;13.00;;;;;;;5.64;81.68;100464.63;4415910;32;34761;-76
2022/11/08 04:53:34;;;;;;;25.08;12.63;;;;;;;6.26;79.17;100456.34;4415716;32;33452;-76
2022/11/08 04:56:07;;;;;;;29.77;12.95;;;;;;;6.61;78.03;100453.69;4418548;32;32147;-76
2022/11/08 04:58:39;;;;;;;28.20;11.32;;;;;;;6.82;77.54;100450.84;4419193;32;33510;-76
2022/11/08 05:01:08;;;;;;;36.67;13.02;;;;;;;6.76;78.25;100451.31;4419468;32;34229;-76
2022/11/08 05:03:36;;;;;;;39.60;12.88;;;;;;;6.55;79.48;100449.78;4414302;32;33577;-75
2022/11/08 05:06:06;;;;;;;27.98;12.52;;;;;;;6.89;78.12;100448.81;4411176;32;33548;-76
2022/11/08 05:08:34;;;;;;;32.92;13.20;;;;;;;5.99;82.50;100457.75;4415637;32;33593;-76
2022/11/08 05:11:03;;;;;;;31.10;12.20;;;;;;;5.94;83.50;100467.69;4418303;32;33700;-76
2022/11/08 05:13:31;;;;;;;43.28;13.68;;;;;;;6.19;83.02;100456.66;4420100;32;33490;-76
2022/11/08 05:16:07;;;;;;;30.52;12.02;;;;;;;5.97;84.28;100457.66;4415311;32;32179;-76
2022/11/08 05:18:34;;;;;;;44.85;11.07;;;;;;;6.78;80.68;100461.69;4429171;32;33917;-77
2022/11/08 05:23:49;;;;;;;29.60;11.57;;;;;;;6.24;83.02;100463.03;4429989;32;33247;-77
2022/11/08 05:26:18;;;;;;;21.65;10.43;;;;;;;5.99;84.55;100465.47;4428726;32;33908;-76
2022/11/08 05:28:46;;;;;;;32.03;12.27;;;;;;;6.30;84.38;100468.63;4430658;32;34681;-76
2022/11/08 05:31:14;;;;;;;24.52;11.40;;;;;;;5.95;85.34;100469.53;4420467;32;34154;-76
2022/11/08 05:33:43;;;;;;;30.05;12.02;;;;;;;6.22;84.60;100472.31;4407580;32;32011;-76
2022/11/08 05:36:13;;;;;;;25.02;12.05;;;;;;;6.57;82.67;100473.97;4434461;32;33906;-77
2022/11/08 05:38:42;;;;;;;24.90;11.57;;;;;;;7.19;80.72;100481.75;4432428;32;34704;-77
2022/11/08 05:41:17;;;;;;;25.23;11.40;;;;;;;7.65;77.88;100478.03;4435482;32;34426;-76
2022/11/08 05:43:47;;;;;;;23.62;11.02;;;;;;;7.98;76.30;100473.31;4424766;32;33999;-75
2022/11/08 05:46:15;;;;;;;24.20;11.52;;;;;;;8.12;75.52;100475.91;4429001;32;33547;-75
2022/11/08 05:48:43;;;;;;;26.83;10.98;;;;;;;8.11;75.55;100479.28;4435586;32;33842;-76
2022/11/08 05:51:11;;;;;;;24.65;11.02;;;;;;;8.36;74.58;100477.47;4421993;32;33873;-75
2022/11/08 05:53:39;;;;;;;24.00;10.85;;;;;;;8.16;74.39;100488.22;4434322;32;34432;-76
2022/11/08 05:56:07;;;;;;;24.92;12.35;;;;;;;8.31;74.32;100478.91;4416460;32;34431;-76
2022/11/08 05:58:35;;;;;;;30.20;12.15;;;;;;;8.24;75.07;100481.88;4428386;32;34004;-76
2022/11/08 06:01:05;;;;;;;25.92;10.43;;;;;;;8.46;74.06;100484.19;4433100;32;34564;-76
2022/11/08 06:03:32;;;;;;;59.15;11.20;;;;;;;8.46;74.23;100472.16;4432579;32;33590;-76
2022/11/08 06:06:02;;;;;;;40.70;10.48;;;;;;;7.90;76.20;100478.75;4417509;32;33697;-76
2022/11/08 06:08:29;;;;;;;36.45;10.52;;;;;;;7.47;78.56;100476.78;4415381;32;33750;-76
2022/11/08 06:11:05;;;;;;;21.87;9.63;;;;;;;7.95;77.24;100491.16;4433602;32;34504;-76
2022/11/08 06:13:33;;;;;;;30.95;11.32;;;;;;;8.41;75.96;100486.47;4435688;32;33509;-74
2022/11/08 06:16:02;;;;;;;21.12;9.63;;;;;;;8.48;75.64;100481.69;4426377;32;33631;-76
2022/11/08 06:18:30;;;;;;;25.58;11.20;;;;;;;8.75;74.15;100473.12;4414846;32;33503;-79
2022/11/08 06:20:59;;;;;;;20.77;10.60;;;;;;;8.43;75.42;100487.44;4423505;32;34092;-79
2022/11/08 06:23:27;;;;;;;29.00;10.75;;;;;;;8.56;75.46;100496.00;4431712;32;33328;-78
2022/11/08 06:25:54;;;;;;;44.22;11.55;;;;;;;8.32;76.27;100493.56;4405936;32;33542;-78
2022/11/08 06:28:22;;;;;;;37.47;12.40;;;;;;;7.90;77.72;100500.31;4432011;32;33604;-78
2022/11/08 06:30:50;;;;;;;26.95;10.75;;;;;;;7.49;80.36;100500.97;4423914;32;33920;-77
2022/11/08 06:33:18;;;;;;;23.40;11.45;;;;;;;7.37;81.59;100500.16;4419933;32;33571;-78
2022/11/08 06:35:46;;;;;;;24.40;12.52;;;;;;;8.23;77.96;100490.41;4416533;32;34539;-77
2022/11/08 06:38:14;;;;;;;28.80;12.60;;;;;;;8.60;76.84;100498.88;4434152;32;33670;-77
2022/11/08 06:40:43;;;;;;;25.48;12.48;;;;;;;8.39;77.23;100490.59;4434911;32;34949;-77
2022/11/08 06:43:11;;;;;;;26.83;13.62;;;;;;;8.69;76.43;100488.22;4415187;32;33641;-77
2022/11/08 06:45:46;;;;;;;26.05;14.82;;;;;;;8.82;76.33;100492.47;4434663;32;33369;-77
2022/11/08 06:48:13;;;;;;;29.27;15.52;;;;;;;9.22;74.24;100495.84;4435061;32;33973;-77
2022/11/08 06:50:41;;;;;;;27.98;14.77;;;;;;;9.32;73.38;100501.56;4415811;32;35615;-77
2022/11/08 06:53:13;;;;;;;28.73;11.98;;;;;;;8.92;74.68;100500.00;4433092;32;33422;-77
2022/11/08 06:55:40;;;;;;;30.85;13.05;;;;;;;8.63;76.53;100508.47;4424258;32;33896;-77
2022/11/08 06:58:09;;;;;;;39.83;14.02;;;;;;;8.39;77.54;100507.78;4430425;32;34439;-77
2022/11/08 07:00:37;;;;;;;53.33;19.87;;;;;;;7.16;83.69;100508.16;4434918;32;34658;-77
2022/11/08 07:03:04;;;;;;;60.25;23.33;;;;;;;7.12;84.48;100511.31;4411734;32;34256;-77
2022/11/08 07:05:33;;;;;;;60.45;24.63;;;;;;;7.06;85.82;100511.78;4420037;32;33654;-77
2022/11/08 07:08:03;;;;;;;53.72;24.42;;;;;;;6.86;87.86;100510.41;4427713;32;33686;-77
2022/11/08 07:10:31;;;;;;;84.53;23.73;;;;;;;7.57;84.91;100510.16;4432335;32;35075;-77
2022/11/08 07:13:08;;;;;;;61.13;22.50;;;;;;;6.61;89.55;100512.91;4428437;32;33483;-77
2022/11/08 07:15:36;;;;;;;57.33;23.27;;;;;;;7.64;86.11;100520.06;4435077;32;32794;-77
2022/11/08 07:18:07;;;;;;;59.03;16.58;;;;;;;8.07;83.63;100517.81;4421551;32;34024;-77
2022/11/08 07:20:35;;;;;;;53.58;17.35;;;;;;;8.53;81.81;100512.16;4435530;32;34207;-78
2022/11/08 07:23:05;;;;;;;55.78;14.68;;;;;;;8.62;81.68;100504.13;4432389;32;32889;-78
2022/11/08 07:25:33;;;;;;;44.05;13.57;;;;;;;8.31;82.70;100508.97;4404892;32;33700;-77
2022/11/08 07:28:04;;;;;;;27.92;10.48;;;;;;;7.85;84.68;100517.16;4431367;32;34610;-78
2022/11/08 07:30:34;;;;;;;27.87;13.80;;;;;;;7.53;86.53;100523.59;4431247;32;34083;-78
2022/11/08 07:33:01;;;;;;;25.37;13.48;;;;;;;7.90;86.57;100526.09;4434009;32;33477;-77
2022/11/08 07:35:29;;;;;;;52.42;21.58;;;;;;;8.91;81.94;100512.84;4431091;32;33878;-77
2022/11/08 07:37:57;;;;;;;70.12;26.10;;;;;;;9.52;78.60;100515.69;4425824;32;33725;-77
2022/11/08 07:40:24;;;;;;;51.10;24.23;;;;;;;9.53;78.17;100515.78;4432172;32;33979;-78
2022/11/08 07:42:52;;;;;;;35.35;15.65;;;;;;;9.32;79.32;100524.84;4417631;32;34017;-78
2022/11/08 07:45:40;;;;;;;30.17;14.65;;;;;;;9.54;79.17;100515.00;4424830;32;33474;-78
2022/11/08 07:48:10;;;;;;;29.63;11.20;;;;;;;9.48;79.60;100519.78;4415964;32;34672;-77
2022/11/08 07:50:58;;;;;;;21.50;9.85;;;;;;;9.73;78.73;100523.84;4413293;32;34927;-77
2022/11/08 07:53:38;;;;;;;26.30;11.10;;;;;;;9.57;80.22;100522.94;4430470;32;33617;-78
2022/11/08 07:56:28;;;;;;;20.33;10.63;;;;;;;9.81;79.28;100527.78;4417217;32;33560;-77
2022/11/08 07:59:14;;;;;;;21.92;10.45;;;;;;;9.96;79.09;100522.63;4431685;32;34161;-77
2022/11/08 08:01:49;;;;;;;18.92;10.68;;;;;;;10.21;78.62;100530.12;4430307;32;34632;-77
2022/11/08 08:04:39;;;;;;;17.30;9.90;;;;;;;10.12;79.30;100525.31;4426859;32;34116;-77
2022/11/08 08:07:29;;;;;;;15.38;8.80;;;;;;;10.23;78.86;100518.16;4425498;32;32543;-78
2022/11/08 08:10:35;;;;;;;28.38;10.60;;;;;;;10.34;78.28;100524.00;4435117;32;33286;-78
2022/11/08 08:13:12;;;;;;;27.05;10.38;;;;;;;10.25;78.66;100529.50;4411686;32;34759;-77
2022/11/08 08:15:51;;;;;;;31.58;12.23;;;;;;;10.29;78.75;100528.87;4430776;32;33600;-78
2022/11/08 08:18:20;;;;;;;27.45;11.68;;;;;;;10.37;78.44;100525.06;4418263;32;32634;-78
2022/11/08 08:20:49;;;;;;;23.55;12.13;;;;;;;10.26;78.71;100523.53;4434444;32;33692;-78
2022/11/08 08:23:18;;;;;;;18.80;11.23;;;;;;;10.56;78.33;100528.69;4435902;32;33893;-78
2022/11/08 08:25:47;;;;;;;25.95;13.18;;;;;;;10.37;78.79;100517.31;4417974;32;33505;-78
2022/11/08 08:28:25;;;;;;;24.08;13.57;;;;;;;10.49;78.60;100521.38;4430536;32;33317;-78
2022/11/08 08:30:53;;;;;;;31.85;15.02;;;;;;;10.47;78.96;100525.56;4436229;32;34546;-78
2022/11/08 08:33:23;;;;;;;21.25;13.35;;;;;;;10.42;79.51;100514.97;4424383;32;34152;-78
2022/11/08 08:35:56;;;;;;;26.45;13.25;;;;;;;10.75;78.65;100520.25;4434886;32;33683;-78
2022/11/08 08:38:25;;;;;;;26.37;15.35;;;;;;;11.08;78.07;100521.19;4433077;32;33626;-78
2022/11/08 08:40:58;;;;;;;28.10;13.43;;;;;;;10.94;78.02;100516.97;4433385;32;34768;-79
2022/11/08 08:43:32;;;;;;;20.95;13.23;;;;;;;10.63;79.07;100530.81;4420130;32;33973;-78
2022/11/08 08:46:20;;;;;;;45.15;14.18;;;;;;;10.77;78.93;100524.69;4427699;32;33766;-78
2022/11/08 08:48:48;;;;;;;24.00;13.75;;;;;;;10.56;79.72;100528.69;4434469;32;33750;-78
2022/11/08 08:51:18;;;;;;;28.62;14.95;;;;;;;10.83;78.27;100529.34;4436250;32;33706;-78
2022/11/08 08:54:05;;;;;;;31.12;15.02;;;;;;;10.57;79.85;100530.47;4424723;32;34168;-78
2022/11/08 08:56:51;;;;;;;25.92;14.43;;;;;;;10.82;78.51;100527.56;4426318;32;33414;-78
2022/11/08 08:59:19;;;;;;;31.85;15.23;;;;;;;11.07;77.83;100534.06;4435962;32;33895;-78
2022/11/08 09:02:08;;;;;;;28.08;14.20;;;;;;;11.24;76.92;100532.41;4428825;32;33882;-78
2022/11/08 09:04:47;;;;;;;28.80;15.60;;;;;;;11.29;77.05;100536.13;4421570;32;33736;-78
2022/11/08 09:07:16;;;;;;;29.90;14.90;;;;;;;11.26;77.10;100533.38;4425996;32;34291;-78
2022/11/08 09:09:50;;;;;;;31.50;15.98;;;;;;;11.37;76.86;100529.66;4426876;32;33375;-78
2022/11/08 09:12:18;;;;;;;29.70;16.48;;;;;;;11.25;77.67;100534.19;4421167;32;32183;-79
2022/11/08 09:14:45;;;;;;;31.70;17.05;;;;;;;11.15;78.36;100533.69;4425598;32;34596;-79
2022/11/08 09:17:13;;;;;;;35.38;16.50;;;;;;;11.10;78.89;100540.31;4434410;32;33563;-78
2022/11/08 09:19:41;;;;;;;36.53;18.80;;;;;;;11.47;77.80;100547.47;4426578;32;33832;-78
2022/11/08 09:22:08;;;;;;;34.35;17.37;;;;;;;11.12;79.24;100550.78;4424516;32;33539;-78
2022/11/08 09:24:37;;;;;;;34.20;18.30;;;;;;;11.33;78.75;100551.06;4429246;32;33980;-79
2022/11/08 09:27:04;;;;;;;36.15;17.77;;;;;;;11.44;78.54;100547.34;4426596;32;33760;-78
2022/11/08 09:29:32;;;;;;;38.58;17.95;;;;;;;11.18;79.75;100549.44;4433462;32;34421;-78
2022/11/08 09:32:00;;;;;;;42.92;19.62;;;;;;;11.42;78.96;100554.16;4391689;32;31442;-78
2022/11/08 09:34:28;;;;;;;41.25;21.08;;;;;;;11.15;80.33;100554.44;4436246;32;33711;-78
2022/11/08 09:36:55;;;;;;;45.12;21.48;;;;;;;10.84;81.95;100546.69;4437144;32;33553;-77
2022/11/08 09:39:23;;;;;;;43.58;19.85;;;;;;;11.27;80.44;100542.94;4425746;32;33224;-78
2022/11/08 09:42:30;;;;;;;40.53;20.75;;;;;;;11.13;80.86;100537.91;4437835;32;34545;-78
2022/11/08 09:44:57;;;;;;;38.60;20.05;;;;;;;11.54;79.35;100539.22;4421296;32;33668;-78
2022/11/08 09:47:29;;;;;;;44.83;22.73;;;;;;;11.77;78.89;100544.72;4419983;32;33228;-78
2022/11/08 09:50:02;;;;;;;43.05;19.55;;;;;;;11.73;78.80;100545.37;4435428;32;33647;-78
2022/11/08 09:52:33;;;;;;;42.60;20.30;;;;;;;11.70;78.97;100540.91;4432785;32;34895;-78
2022/11/08 09:55:29;;;;;;;46.25;21.50;;;;;;;11.57;79.89;100534.19;4417753;32;33396;-79
2022/11/08 09:58:13;;;;;;;41.80;20.77;;;;;;;11.63;79.60;100538.81;4411076;32;34194;-80
2022/11/08 10:00:40;;;;;;;40.75;20.88;;;;;;;11.46;80.19;100540.53;4415188;32;34340;-78
2022/11/08 10:03:12;;;;;;;39.80;20.35;;;;;;;12.02;78.49;100539.13;4426720;32;33613;-78
2022/11/08 10:06:02;;;;;;;40.65;21.35;;;;;;;11.63;80.32;100537.91;4411185;32;32891;-78
2022/11/08 10:08:41;;;;;;;42.25;22.30;;;;;;;11.77;79.88;100542.13;4417845;32;33203;-79
2022/11/08 10:11:36;;;;;;;45.08;23.52;;;;;;;11.83;79.47;100547.62;4409235;32;33810;-79
2022/11/08 10:14:22;;;;;;;49.28;23.58;;;;;;;11.81;79.74;100544.94;4409140;32;32157;-79
2022/11/08 10:16:56;;;;;;;45.60;23.75;;;;;;;12.05;79.00;100535.78;4435900;32;34264;-79
2022/11/08 10:19:47;;;;;;;50.23;23.97;;;;;;;12.05;79.07;100535.78;4428939;32;33629;-79
2022/11/08 10:22:52;;;;;;;44.45;22.42;;;;;;;12.33;78.24;100527.66;4412158;32;33902;-79
2022/11/08 10:25:25;;;;;;;46.40;21.75;;;;;;;12.07;79.42;100528.94;4391979;32;32417;-79
2022/11/08 10:27:55;;;;;;;47.40;23.08;;;;;;;12.52;77.57;100522.53;4406185;32;33488;-78
2022/11/08 10:30:29;;;;;;;50.97;22.35;;;;;;;12.37;78.12;100512.28;4416689;32;33877;-79
2022/11/08 10:32:58;;;;;;;49.90;23.23;;;;;;;12.54;77.25;100509.62;4418361;32;33510;-78
2022/11/08 10:35:29;;;;;;;49.60;23.75;;;;;;;12.56;77.31;100503.69;4436216;32;33623;-79
2022/11/08 10:37:58;;;;;;;48.60;24.30;;;;;;;12.61;77.05;100506.50;4421799;32;34133;-79
2022/11/08 10:40:47;;;;;;;52.75;26.05;;;;;;;12.64;77.55;100506.66;4420316;32;33901;-79
2022/11/08 10:43:35;;;;;;;53.80;25.73;;;;;;;12.66;78.39;100496.34;4429354;32;33930;-79
2022/11/08 10:46:04;;;;;;;53.40;25.15;;;;;;;12.93;77.29;100495.00;4417745;32;33843;-80
2022/11/08 10:48:37;;;;;;;51.05;25.58;;;;;;;12.86;77.01;100492.06;4436051;32;34189;-80
2022/11/08 10:51:06;;;;;;;50.85;26.27;;;;;;;12.69;77.86;100484.37;4434630;32;33744;-79
2022/11/08 10:53:42;;;;;;;48.85;25.23;;;;;;;12.63;77.44;100484.06;4434280;32;34410;-78
2022/11/08 10:56:11;;;;;;;52.85;25.40;;;;;;;12.79;78.99;100488.28;4411829;32;32114;-79
2022/11/08 10:58:40;;;;;;;55.97;25.67;;;;;;;12.69;78.69;100484.37;4429596;32;33550;-78
2022/11/08 11:01:15;;;;;;;57.45;26.37;;;;;;;12.64;79.32;100485.84;4420959;32;32796;-77
2022/11/08 11:03:45;;;;;;;49.30;25.33;;;;;;;12.91;78.35;100487.97;4423581;32;34741;-77
2022/11/08 11:06:38;;;;;;;51.85;24.17;;;;;;;12.76;78.83;100481.22;4422696;32;33752;-78
2022/11/08 11:09:19;;;;;;;53.85;27.17;;;;;;;13.29;77.20;100488.81;4416548;32;34872;-79
2022/11/08 11:11:55;;;;;;;47.88;25.33;;;;;;;13.33;76.68;100485.59;4433968;32;34244;-79
2022/11/08 11:14:23;;;;;;;50.95;24.85;;;;;;;13.48;76.49;100482.75;4430715;32;33658;-79
2022/11/08 11:17:01;;;;;;;52.80;24.52;;;;;;;13.34;75.93;100482.13;4431118;32;33660;-79
2022/11/08 11:19:29;;;;;;;54.92;26.37;;;;;;;13.45;75.44;100483.50;4422327;32;33733;-79
2022/11/08 11:22:02;;;;;;;52.90;25.92;;;;;;;13.73;75.34;100482.09;4420620;32;33791;-78
2022/11/08 11:24:30;;;;;;;45.95;25.27;;;;;;;13.49;74.57;100488.03;4426881;32;33918;-77
2022/11/08 11:27:03;;;;;;;51.30;26.95;;;;;;;13.36;75.30;100481.37;4427256;32;33995;-79
2022/11/08 11:29:33;;;;;;;52.13;25.58;;;;;;;13.35;74.80;100476.12;4432587;32;33918;-79
2022/11/08 11:32:34;;;;;;;51.37;25.62;;;;;;;13.84;72.40;100475.62;4420753;32;33422;-78
2022/11/08 11:35:03;;;;;;;48.38;24.25;;;;;;;13.91;72.58;100477.69;4377258;32;34087;-78
2022/11/08 11:37:42;;;;;;;51.33;25.98;;;;;;;14.12;71.53;100474.19;4419578;32;33456;-79
2022/11/08 11:40:33;;;;;;;46.05;24.52;;;;;;;13.94;72.05;100476.91;4414800;32;33963;-78
2022/11/08 11:43:57;;;;;;;49.63;24.15;;;;;;;14.05;71.64;100474.75;4419255;32;33543;-78
2022/11/08 11:46:33;;;;;;;45.58;23.65;;;;;;;13.65;72.25;100478.28;4398024;32;34256;-78
2022/11/08 11:49:13;;;;;;;40.80;23.87;;;;;;;14.01;70.54;100467.66;4420691;32;33759;-78
2022/11/08 11:51:41;;;;;;;45.67;25.70;;;;;;;14.17;70.60;100475.25;4401941;32;35141;-78
2022/11/08 11:54:12;;;;;;;45.78;25.30;;;;;;;13.96;72.05;100476.16;4428635;32;33283;-77
2022/11/08 11:57:01;;;;;;;44.22;24.17;;;;;;;13.62;74.21;100471.25;4420995;32;33358;-78
2022/11/08 11:59:37;;;;;;;46.97;25.15;;;;;;;13.77;72.62;100468.38;4408902;32;33542;-78
2022/11/08 12:02:22;;;;;;;45.88;25.62;;;;;;;13.43;73.92;100466.94;4432576;32;34655;-79
2022/11/08 12:05:00;;;;;;;44.85;25.35;;;;;;;13.01;76.06;100461.56;4420386;32;34205;-77
2022/11/08 12:07:31;;;;;;;47.60;25.00;;;;;;;13.22;75.52;100456.44;4432903;32;34061;-78
2022/11/08 12:10:03;;;;;;;45.72;24.25;;;;;;;13.72;73.75;100444.75;4406895;32;34696;-78
2022/11/08 12:13:02;;;;;;;44.40;24.77;;;;;;;13.93;73.23;100439.56;4426282;32;33629;-78
2022/11/08 12:15:40;;;;;;;42.33;23.02;;;;;;;14.03;73.55;100450.37;4407157;32;33248;-78
2022/11/08 12:18:18;;;;;;;42.55;24.70;;;;;;;14.18;72.58;100440.56;4429739;32;33984;-79